sensor_id;sensor_type;location;lat;lon;timestamp;pressure;altitude;pressure_sealevel;temperature;humidity
31162;BME280;17796;49.296;-117.656;2022-08-21T00:09:30;95800;;;30.22288;28.97774
31162;BME280;17796;49.296;-117.656;2022-08-21T00:24:34;95800;;;31.10569;27.69109
31162;BME280;17796;49.296;-117.656;2022-08-21T00:39:37;95800;;;32.21502;26.22967
31162;BME280;17796;49.296;-117.656;2022-08-21T00:54:41;95800;;;30.68128;28.35242
31162;BME280;17796;49.296;-117.656;2022-08-21T01:09:45;95800;;;31.75057;28.60494
31162;BME280;17796;49.296;-117.656;2022-08-21T01:24:49;95800;;;30.86236;30.62808
31162;BME280;17796;49.296;-117.656;2022-08-21T01:39:54;95800;;;28.51733;35.81234
31162;BME280;17796;49.296;-117.656;2022-08-21T01:54:58;95800;;;29.73018;31.8359
31162;BME280;17796;49.296;-117.656;2022-08-21T02:10:02;95800;;;26.93823;37.67891
31162;BME280;17796;49.296;-117.656;2022-08-21T02:25:06;95800;;;27.88772;34.47743
31162;BME280;17796;49.296;-117.656;2022-08-21T02:40:11;95800;;;26.34389;37.39662
31162;BME280;17796;49.296;-117.656;2022-08-21T02:55:16;95800;;;26.29116;37.16827
31162;BME280;17796;49.296;-117.656;2022-08-21T03:10:20;95900;;;26.05197;37.41107
31162;BME280;17796;49.296;-117.656;2022-08-21T03:25:25;95900;;;26.20667;36.44738
31162;BME280;17796;49.296;-117.656;2022-08-21T03:40:30;95900;;;25.37568;38.83402
31162;BME280;17796;49.296;-117.656;2022-08-21T03:55:34;95900;;;25.01769;39.93545
31162;BME280;17796;49.296;-117.656;2022-08-21T04:10:38;95900;;;25.12505;38.7477
31162;BME280;17796;49.296;-117.656;2022-08-21T04:25:42;96000;;;24.31282;40.73144
31162;BME280;17796;49.296;-117.656;2022-08-21T04:40:46;96000;;;23.84397;42.77192
31162;BME280;17796;49.296;-117.656;2022-08-21T04:55:50;96000;;;23.76393;42.13074
31162;BME280;17796;49.296;-117.656;2022-08-21T05:10:56;96000;;;22.87325;46.72541
31162;BME280;17796;49.296;-117.656;2022-08-21T05:26:00;96000;;;23.28237;42.50796
31162;BME280;17796;49.296;-117.656;2022-08-21T05:41:04;96000;;;22.31991;47.53022
31162;BME280;17796;49.296;-117.656;2022-08-21T05:56:09;96000;;;22.5178;44.43376
31162;BME280;17796;49.296;-117.656;2022-08-21T06:11:13;96000;;;22.2764;45.076
31162;BME280;17796;49.296;-117.656;2022-08-21T06:26:17;96000;;;22.22081;45.48738
31162;BME280;17796;49.296;-117.656;2022-08-21T06:41:20;96100;;;21.58362;46.3785
31162;BME280;17796;49.296;-117.656;2022-08-21T06:56:24;96100;;;20.8178;49.89936
31162;BME280;17796;49.296;-117.656;2022-08-21T07:11:28;96100;;;21.02744;49.16403
31162;BME280;17796;49.296;-117.656;2022-08-21T07:26:31;96100;;;20.6396;48.94873
31162;BME280;17796;49.296;-117.656;2022-08-21T07:41:35;96100;;;18.66424;61.28934
31162;BME280;17796;49.296;-117.656;2022-08-21T07:56:39;96100;;;20.31021;53.01404
31162;BME280;17796;49.296;-117.656;2022-08-21T08:11:42;96100;;;20.37787;50.86512
31162;BME280;17796;49.296;-117.656;2022-08-21T08:26:46;96100;;;18.70077;60.08783
31162;BME280;17796;49.296;-117.656;2022-08-21T08:41:50;96100;;;19.55266;53.1826
31162;BME280;17796;49.296;-117.656;2022-08-21T08:56:58;96100;;;19.70226;53.4689
31162;BME280;17796;49.296;-117.656;2022-08-21T09:12:04;96100;;;17.72534;63.41622
31162;BME280;17796;49.296;-117.656;2022-08-21T09:27:14;96100;;;19.31062;54.73938
31162;BME280;17796;49.296;-117.656;2022-08-21T09:42:23;96100;;;19.17118;56.88889
31162;BME280;17796;49.296;-117.656;2022-08-21T09:57:30;96100;;;18.93804;56.8056
31162;BME280;17796;49.296;-117.656;2022-08-21T10:12:38;96200;;;18.18081;62.485
31162;BME280;17796;49.296;-117.656;2022-08-21T10:27:53;96200;;;18.23386;60.70236
31162;BME280;17796;49.296;-117.656;2022-08-21T10:43:09;96200;;;19.23153;51.70122
31162;BME280;17796;49.296;-117.656;2022-08-21T10:58:25;96200;;;17.29559;64.32372
31162;BME280;17796;49.296;-117.656;2022-08-21T11:13:32;96200;;;18.67695;53.11712
31162;BME280;17796;49.296;-117.656;2022-08-21T11:28:44;96300;;;16.26237;71.58479
31162;BME280;17796;49.296;-117.656;2022-08-21T11:43:54;96300;;;17.89114;59.22205
31162;BME280;17796;49.296;-117.656;2022-08-21T11:59:06;96300;;;18.1697;60.61927
31162;BME280;17796;49.296;-117.656;2022-08-21T12:14:14;96300;;;18.19098;58.47335
31162;BME280;17796;49.296;-117.656;2022-08-21T12:29:22;96300;;;17.95594;61.87336
31162;BME280;17796;49.296;-117.656;2022-08-21T12:44:31;96300;;;18.35392;62.4193
31162;BME280;17796;49.296;-117.656;2022-08-21T12:59:41;96200;;;18.49685;59.72357
31162;BME280;17796;49.296;-117.656;2022-08-21T13:14:44;96200;;;18.35519;60.82819
31162;BME280;17796;49.296;-117.656;2022-08-21T13:30:00;96300;;;17.61989;66.67016
31162;BME280;17796;49.296;-117.656;2022-08-21T13:45:17;96300;;;17.95911;64.86848
31162;BME280;17796;49.296;-117.656;2022-08-21T14:00:26;96300;;;18.74175;59.10373
31162;BME280;17796;49.296;-117.656;2022-08-21T14:15:32;96300;;;17.37246;68.63351
31162;BME280;17796;49.296;-117.656;2022-08-21T14:30:38;96300;;;18.84212;63.5319
31162;BME280;17796;49.296;-117.656;2022-08-21T14:45:43;96300;;;19.73943;60.88055
31162;BME280;17796;49.296;-117.656;2022-08-21T15:00:47;96300;;;19.19151;62.83364
31162;BME280;17796;49.296;-117.656;2022-08-21T15:15:51;96300;;;21.77706;55.7944
31162;BME280;17796;49.296;-117.656;2022-08-21T15:30:54;96300;;;20.23843;59.87986
31162;BME280;17796;49.296;-117.656;2022-08-21T15:45:58;96300;;;22.21477;55.30582
31162;BME280;17796;49.296;-117.656;2022-08-21T16:01:03;96400;;;24.41002;45.76546
31162;BME280;17796;49.296;-117.656;2022-08-21T16:16:07;96400;;;25.19494;43.8165
31162;BME280;17796;49.296;-117.656;2022-08-21T16:31:12;96400;;;26.54656;40.07674
31162;BME280;17796;49.296;-117.656;2022-08-21T16:46:16;96400;;;26.80767;38.86641
31162;BME280;17796;49.296;-117.656;2022-08-21T17:01:22;96400;;;27.93442;36.26211
31162;BME280;17796;49.296;-117.656;2022-08-21T17:16:29;96400;;;27.78226;37.1237
31162;BME280;17796;49.296;-117.656;2022-08-21T17:31:32;96400;;;26.78353;38.40267
31162;BME280;17796;49.296;-117.656;2022-08-21T17:46:36;96400;;;28.67425;34.98979
31162;BME280;17796;49.296;-117.656;2022-08-21T18:01:41;96300;;;28.58372;34.60757
31162;BME280;17796;49.296;-117.656;2022-08-21T18:16:46;96300;;;29.39567;33.55331
31162;BME280;17796;49.296;-117.656;2022-08-21T18:31:50;96300;;;30.71337;30.85754
31162;BME280;17796;49.296;-117.656;2022-08-21T18:46:55;96300;;;30.42556;31.09027
31162;BME280;17796;49.296;-117.656;2022-08-21T19:02:01;96300;;;29.97605;32.29832
31162;BME280;17796;49.296;-117.656;2022-08-21T19:17:05;96300;;;31.25754;29.82715
31162;BME280;17796;49.296;-117.656;2022-08-21T19:32:09;96200;;;31.46784;29.50007
31162;BME280;17796;49.296;-117.656;2022-08-21T19:47:14;96200;;;31.56219;29.11655
31162;BME280;17796;49.296;-117.656;2022-08-21T20:02:19;96200;;;32.67184;27.40694
31162;BME280;17796;49.296;-117.656;2022-08-21T20:17:22;96200;;;34.07663;25.45507
31162;BME280;17796;49.296;-117.656;2022-08-21T20:32:26;96200;;;35.50368;22.91752
31162;BME280;17796;49.296;-117.656;2022-08-21T20:47:30;96200;;;36.56858;21.58007
31162;BME280;17796;49.296;-117.656;2022-08-21T21:02:38;96100;;;36.98825;20.78151
31162;BME280;17796;49.296;-117.656;2022-08-21T21:17:51;96100;;;35.90651;21.71386
31162;BME280;17796;49.296;-117.656;2022-08-21T21:33:01;96100;;;36.80939;20.43437
31162;BME280;17796;49.296;-117.656;2022-08-21T21:48:07;96100;;;35.91794;21.43036
31162;BME280;17796;49.296;-117.656;2022-08-21T22:03:22;96000;;;38.74385;17.86333
31162;BME280;17796;49.296;-117.656;2022-08-21T22:18:31;96000;;;38.03601;19.46483
31162;BME280;17796;49.296;-117.656;2022-08-21T22:33:41;96000;;;39.60736;18.5799
31162;BME280;17796;49.296;-117.656;2022-08-21T22:49:04;96000;;;38.40899;19.94782
31162;BME280;17796;49.296;-117.656;2022-08-21T23:04:15;96000;;;39.13081;18.91552
31162;BME280;17796;49.296;-117.656;2022-08-21T23:19:26;96000;;;38.45156;19.45502
31162;BME280;17796;49.296;-117.656;2022-08-21T23:34:40;95900;;;35.28066;22.00779
31162;BME280;17796;49.296;-117.656;2022-08-21T23:49:53;95900;;;37.29324;19.57031
